WetterOnline ( http://www.wetteronline.de )

Wetter aktuell Bad Bramstedt

Aktuelles Wetter: Itzehoe (26m)

6-stündlich | Neueste Meldungen
Ortszeit Temperatur Wetter
Di, 25.09. 14:00 13.4° C bewölkt
Di, 25.09. 8:00 1.9° C wolkenlos
Di, 25.09. 2:00 5.2° C wolkig
Mo, 24.09. 20:00 8.1° C leicht bewölkt
Mo, 24.09. 14:00 10.8° C leicht bewölkt
Mo, 24.09. 8:00 8.0° C leicht bewölkt
Mo, 24.09. 2:00 8.6° C wolkig
So, 23.09. 20:00 10.3° C wolkig
Ortszeit Temperatur Wetter
Di, 25.09. 14:00 13.4° C bewölkt
Di, 25.09. 13:50 13.4° C bewölkt
Di, 25.09. 13:40 13.2° C bewölkt
Di, 25.09. 13:30 13.7° C wolkig
Di, 25.09. 13:20 13.7° C wolkig
Di, 25.09. 13:10 13.2° C bewölkt
Di, 25.09. 13:00 13.0° C wolkig
Di, 25.09. 12:30 13.2° C leicht bewölkt
Di, 25.09. 12:00 12.6° C leicht bewölkt
Di, 25.09. 11:30 12.2° C wolkenlos
Di, 25.09. 11:00 11.6° C wolkenlos
Ortszeit Relative Feuchte Sichtweite
Di, 25.09. 14:00 59% 50 km
Di, 25.09. 8:00 100% 3.6 km
Di, 25.09. 2:00 88% 50 km
Mo, 24.09. 20:00 72% 70 km
Mo, 24.09. 14:00 62% 35 km
Mo, 24.09. 8:00 73% 70 km
Mo, 24.09. 2:00 81% 70 km
So, 23.09. 20:00 81% 50 km
Ortszeit Relative Feuchte Sichtweite
Di, 25.09. 14:00 59% 50 km
Di, 25.09. 13:50 59% -
Di, 25.09. 13:40 60% -
Di, 25.09. 13:30 59% 30 km
Di, 25.09. 13:20 59% -
Di, 25.09. 13:10 57% -
Di, 25.09. 13:00 60% 55 km
Di, 25.09. 12:30 59% 29 km
Di, 25.09. 12:00 57% 35 km
Di, 25.09. 11:30 57% 27 km
Di, 25.09. 11:00 68% 28 km
Ortszeit Niederschlagsmenge Niederschlagsart
Di, 25.09. 14:00 0.1 l/m2 in 6 Std. -
Di, 25.09. 8:00 0.0 l/m2 in 12 Std. -
Di, 25.09. 2:00 0.0 l/m2 in 6 Std. -
Mo, 24.09. 20:00 2 l/m2 in 12 Std. -
Mo, 24.09. 14:00 1 l/m2 in 6 Std. -
Mo, 24.09. 8:00 0.5 l/m2 in 12 Std. -
Mo, 24.09. 2:00 0.2 l/m2 in 6 Std. -
So, 23.09. 20:00 0.1 l/m2 in 12 Std. -
Ortszeit Niederschlagsmenge Niederschlagsart
Di, 25.09. 14:00 0.1 l/m2 in 1 Std. -
Di, 25.09. 13:50 keine Meldung -
Di, 25.09. 13:40 keine Meldung -
Di, 25.09. 13:30 0.1 l/m2 in 1 Std. -
Di, 25.09. 13:20 keine Meldung -
Di, 25.09. 13:10 keine Meldung -
Di, 25.09. 13:00 0.0 l/m2 in 1 Std. -
Di, 25.09. 12:30 0.0 l/m2 in 1 Std. -
Di, 25.09. 12:00 0.1 l/m2 in 1 Std. -
Di, 25.09. 11:30 0.1 l/m2 in 1 Std. -
Di, 25.09. 11:00 0.0 l/m2 in 1 Std. -
Ortszeit Stärke Spitze Richtung
km/h Bft. km/h Grad Sektor
Di, 25.09. 14:00 7 2 20 260° W
Di, 25.09. 8:00 0 0 7 - -
Di, 25.09. 2:00 4 1 25 300° NW
Mo, 24.09. 20:00 13 3 46 330° NW
Mo, 24.09. 14:00 25 4 47 340° N
Mo, 24.09. 8:00 15 3 50 330° NW
Mo, 24.09. 2:00 7 2 22 310° NW
So, 23.09. 20:00 7 2 14 320° NW
Ortszeit Stärke Spitze Richtung
km/h Bft. km/h Grad Sektor
Di, 25.09. 14:00 7 2 20 260° W
Di, 25.09. 13:50 7 2 - 260° W
Di, 25.09. 13:40 7 2 - 260° W
Di, 25.09. 13:30 7 2 22 280° W
Di, 25.09. 13:20 7 2 - 280° W
Di, 25.09. 13:10 7 2 - 260° W
Di, 25.09. 13:00 9 2 19 260° W
Di, 25.09. 12:30 7 2 18 260° W
Di, 25.09. 12:00 7 2 14 270° W
Di, 25.09. 11:30 6 1 13 240° SW
Di, 25.09. 11:00 7 2 18 250° W
Ortszeit Untergrenze Bedeckung Gattung
total tief tief mittel hoch
Di, 25.09. 14:00 1140 m 7/8 7/8 - - -
Di, 25.09. 8:00 - 0/8 0/8 - - -
Di, 25.09. 2:00 1290 m 5/8 5/8 - - -
Mo, 24.09. 20:00 1500 m 3/8 3/8 - - -
Mo, 24.09. 14:00 1080 m 4/8 1/8 - - -
Mo, 24.09. 8:00 900 m 5/8 1/8 - - -
Mo, 24.09. 2:00 1260 m 7/8 2/8 - - -
So, 23.09. 20:00 1230 m 6/8 4/8 - - -
Ortszeit Bedeckungsgrad in Achtel und Wolkenuntergrenze
Di, 25.09. 14:00 1(1140m) 7(1500m)
Di, 25.09. 13:50 1(1140m) 7(1500m)
Di, 25.09. 13:40 1(1110m) 7(1500m)
Di, 25.09. 13:30 1(1050m) 5(1500m)
Di, 25.09. 13:20 1(1050m) 5(1500m)
Di, 25.09. 13:10 2(1260m) 7(1500m)
Di, 25.09. 13:00 2(1200m) 5(1440m) 6(1500m)
Di, 25.09. 12:30 4(1800m)
Di, 25.09. 12:00 3(1800m)
Di, 25.09. 11:30 keine Wolken
Di, 25.09. 11:00 keine Wolken
Ortszeit Luftdruck NN (hPa) Tendenz (hPa in 3 Std.)
Di, 25.09. 14:00 1038 + 0,4
Di, 25.09. 8:00 1036 + 1,2
Di, 25.09. 2:00 1034 + 1,6
Mo, 24.09. 20:00 1030 + 1,5
Mo, 24.09. 14:00 1027 + 1,5
Mo, 24.09. 8:00 1023 + 2,4
Mo, 24.09. 2:00 1017 + 2,8
So, 23.09. 20:00 1011 + 1,0
Ortszeit Luftdruck NN (hPa) Tendenz (hPa in 3 Std.)
Di, 25.09. 14:00 1038 + 0,4
Di, 25.09. 13:50 1038 keine Meldung
Di, 25.09. 13:40 1038 keine Meldung
Di, 25.09. 13:30 1038 + 0,7
Di, 25.09. 13:20 1038 keine Meldung
Di, 25.09. 13:10 1038 keine Meldung
Di, 25.09. 13:00 1038 + 0,9
Di, 25.09. 12:30 1038 + 1,2
Di, 25.09. 12:00 1038 + 1,6
Di, 25.09. 11:30 1038 + 1,8
Di, 25.09. 11:00 1038 + 1,9
Ortszeit Schneehöhe (cm)
Di, 25.09. 14:00 -
Di, 25.09. 8:00 -
Di, 25.09. 2:00 -
Mo, 24.09. 20:00 -
Mo, 24.09. 14:00 -
Mo, 24.09. 8:00 -
Mo, 24.09. 2:00 -
So, 23.09. 20:00 -
Ortszeit Schneehöhe (cm)
Di, 25.09. 14:00 -
Di, 25.09. 13:50 -
Di, 25.09. 13:40 -
Di, 25.09. 13:30 -
Di, 25.09. 13:20 -
Di, 25.09. 13:10 -
Di, 25.09. 13:00 -
Di, 25.09. 12:30 -
Di, 25.09. 12:00 -
Di, 25.09. 11:30 -
Di, 25.09. 11:00 -
Link zu dieser Seite / Seite empfehlen

Das Wetter in ...